Aviation Digital Data Service (ADDS)

Output produced by METARs form (1144 UTC 18 June 2019)
found at http://www.aviationweather.gov/metar/data/
 
Forecast for: WBSB (BRUNEI INTL AIRP, MY)
Text: TAF WBSB 181100Z 1812/1918 26005KT 9999 FEW015 FEW016CB
Forecast period: 1200 to 1800 UTC 18 June 2019
Forecast type: FROM: standard forecast or significant change
Winds: from the W (260 degrees) at 6 MPH (5 knots; 2.6 m/s)
Visibility: 6 or more miles 10+ km)
Ceiling: at least 12,000 feet AGL
Clouds: few clouds at 1500 feet AGL
few clouds at 1600 feet AGL
Weather: no significant weather forecast for this period
Text: BECMG 1818/1820 20003KT FEW014 FEW015CB
Forecast period: 1800 UTC 18 June 2019 to 1800 UTC 19 June 2019
Forecast type: BECOMING: Conditions expected to become as follows by 2000 UTC 18 June 2019
Winds: from the SSW (200 degrees) at 3 MPH (3 knots; 1.5 m/s)
Visibility: 6 or more miles 10+ km)
Ceiling: at least 12,000 feet AGL
Clouds: few clouds at 1400 feet AGL
few clouds at 1500 feet AGL
Weather: no significant weather forecast for this period
Text: TEMPO 1820/1822 7000 -SHRA
Forecast period: 2000 to 2200 UTC 18 June 2019
Forecast type: TEMPORARY: The following changes expected for less than half the time period
Visibility: 4 miles (7 km)
Ceiling: unknown
Clouds: missing
Weather: -SHRA  (light rain showers)